createdAt,value
2022-08-22T00:00:30.568Z,43.24
2022-08-22T00:01:16.667Z,43.43
2022-08-22T00:02:03.729Z,43.45
2022-08-22T00:02:52.978Z,42.95
2022-08-22T00:02:53.826Z,43.20
2022-08-22T00:03:02.493Z,42.34
2022-08-22T00:03:15.795Z,43.38
2022-08-22T00:03:50.939Z,43.14
2022-08-22T00:04:35.975Z,43.23
2022-08-22T00:05:23.552Z,43.43
2022-08-22T00:06:16.362Z,43.20
2022-08-22T00:07:04.477Z,43.20
2022-08-22T00:07:51.203Z,43.15
2022-08-22T00:08:34.452Z,43.53
2022-08-22T00:09:18.502Z,43.42
2022-08-22T00:10:03.496Z,43.41
2022-08-22T00:10:45.850Z,43.46
2022-08-22T00:11:33.007Z,43.41
2022-08-22T00:12:18.326Z,43.14
2022-08-22T00:13:01.630Z,43.40
2022-08-22T00:13:43.987Z,43.48
2022-08-22T00:14:27.769Z,43.57
2022-08-22T00:15:16.400Z,43.17
2022-08-22T00:16:10.385Z,43.15
2022-08-22T00:16:54.639Z,43.46
2022-08-22T00:17:38.984Z,43.38
2022-08-22T00:18:23.846Z,43.17
2022-08-22T00:19:08.102Z,43.41
2022-08-22T00:19:52.076Z,43.26
2022-08-22T00:20:34.794Z,43.37
2022-08-22T00:21:16.515Z,43.44
2022-08-22T00:22:01.372Z,43.16
2022-08-22T00:22:49.103Z,43.19
2022-08-22T00:23:35.006Z,43.41
2022-08-22T00:24:21.690Z,43.46
2022-08-22T00:25:05.829Z,43.54
2022-08-22T00:25:46.838Z,43.17
2022-08-22T00:26:34.376Z,43.03
2022-08-22T00:27:17.192Z,43.21
2022-08-22T00:28:02.094Z,43.41
2022-08-22T00:28:49.402Z,43.41
2022-08-22T00:29:34.158Z,43.17
2022-08-22T00:30:23.588Z,43.19
2022-08-22T00:31:08.717Z,43.24
2022-08-22T00:32:01.725Z,43.17
2022-08-22T00:32:47.848Z,43.17
2022-08-22T00:33:36.154Z,43.46
2022-08-22T00:34:25.199Z,43.19
2022-08-22T00:35:12.209Z,43.17
2022-08-22T00:35:55.656Z,43.19
2022-08-22T00:36:40.529Z,43.09
2022-08-22T00:37:23.568Z,43.11
2022-08-22T00:38:13.011Z,43.15
2022-08-22T00:39:00.549Z,43.46
2022-08-22T00:39:45.329Z,43.40
2022-08-22T00:40:30.440Z,43.42
2022-08-22T00:41:20.095Z,43.33
2022-08-22T00:42:06.123Z,43.36
2022-08-22T00:42:54.253Z,43.34
2022-08-22T00:43:42.005Z,43.40
2022-08-22T00:44:30.837Z,43.41
2022-08-22T00:45:16.526Z,43.27
2022-08-22T00:46:03.870Z,43.16
2022-08-22T00:46:46.957Z,43.37
2022-08-22T00:47:33.059Z,43.39
2022-08-22T00:48:20.652Z,43.16
2022-08-22T00:49:06.112Z,43.33
2022-08-22T00:49:51.688Z,43.16
2022-08-22T00:50:37.870Z,43.36
2022-08-22T00:51:20.537Z,43.12
2022-08-22T00:52:03.868Z,43.12
2022-08-22T00:52:50.323Z,43.38
2022-08-22T00:53:36.970Z,43.30
2022-08-22T00:54:19.919Z,43.31
2022-08-22T00:55:06.137Z,43.34
2022-08-22T00:55:50.585Z,43.05
2022-08-22T00:56:32.058Z,43.22
2022-08-22T00:57:19.936Z,43.33
2022-08-22T00:58:03.012Z,43.21
2022-08-22T00:58:44.924Z,43.32
2022-08-22T00:59:28.384Z,43.17
2022-08-22T01:00:13.594Z,43.09
2022-08-22T01:00:59.972Z,43.12
2022-08-22T01:01:47.314Z,43.04
2022-08-22T01:02:34.487Z,43.16
2022-08-22T01:03:25.721Z,43.42
2022-08-22T01:04:12.464Z,43.04
2022-08-22T01:04:58.739Z,43.32
2022-08-22T01:05:44.845Z,43.25
2022-08-22T01:06:29.452Z,43.29
2022-08-22T01:07:18.642Z,43.18
2022-08-22T01:08:02.628Z,43.28
2022-08-22T01:08:49.134Z,43.23
2022-08-22T01:09:35.774Z,43.01
2022-08-22T01:10:23.401Z,43.10
2022-08-22T01:11:05.348Z,43.20
2022-08-22T01:11:50.949Z,43.13
2022-08-22T01:12:33.716Z,43.15
2022-08-22T01:13:22.164Z,43.20
2022-08-22T01:14:10.679Z,43.03
2022-08-22T01:15:22.620Z,43.24
2022-08-22T01:16:08.426Z,43.15
2022-08-22T01:16:54.884Z,43.03
2022-08-22T01:17:41.148Z,43.02
2022-08-22T01:18:29.794Z,43.13
2022-08-22T01:19:15.773Z,43.10
2022-08-22T01:20:01.028Z,42.97
2022-08-22T01:20:46.602Z,42.98
2022-08-22T01:21:32.184Z,43.20
2022-08-22T01:22:19.757Z,42.96
2022-08-22T01:23:01.765Z,43.18
2022-08-22T01:23:46.001Z,43.10
2022-08-22T01:24:30.570Z,43.08
2022-08-22T01:25:13.160Z,43.11
2022-08-22T01:25:58.572Z,43.06
2022-08-22T01:26:39.161Z,42.85
2022-08-22T01:27:24.841Z,43.08
2022-08-22T01:28:09.204Z,42.90
2022-08-22T01:28:54.909Z,42.87
2022-08-22T01:29:37.349Z,43.21
2022-08-22T01:30:22.691Z,43.13
2022-08-22T01:31:07.362Z,42.95
2022-08-22T01:31:48.707Z,43.16
2022-08-22T01:32:31.752Z,43.04
2022-08-22T01:33:17.524Z,43.20
2022-08-22T01:34:06.044Z,42.97
2022-08-22T01:34:56.218Z,43.17
2022-08-22T01:35:40.311Z,43.05
2022-08-22T01:36:28.055Z,43.07
2022-08-22T01:37:11.081Z,43.02
2022-08-22T01:37:59.665Z,42.87
2022-08-22T01:38:44.148Z,43.03
2022-08-22T01:39:27.775Z,43.06
2022-08-22T01:40:11.545Z,43.02
2022-08-22T01:40:54.365Z,43.08
2022-08-22T01:41:39.203Z,42.80
2022-08-22T01:42:23.068Z,42.98
2022-08-22T01:43:05.363Z,43.07
2022-08-22T01:43:59.150Z,42.86
2022-08-22T01:44:43.039Z,43.03
2022-08-22T01:45:28.423Z,43.11
2022-08-22T01:46:13.351Z,42.81
2022-08-22T01:47:04.041Z,42.93
2022-08-22T01:47:47.121Z,42.85
2022-08-22T01:48:32.647Z,42.80
2022-08-22T01:49:19.711Z,42.92
2022-08-22T01:50:09.191Z,43.13
2022-08-22T01:50:55.887Z,42.74
2022-08-22T01:51:41.396Z,43.02
2022-08-22T01:52:29.138Z,43.00
2022-08-22T01:53:17.309Z,42.72
2022-08-22T01:54:02.324Z,43.04
2022-08-22T01:54:48.455Z,42.80
2022-08-22T01:55:33.011Z,43.07
2022-08-22T01:56:14.318Z,43.07
2022-08-22T01:57:00.887Z,42.74
2022-08-22T01:57:45.954Z,42.80
2022-08-22T01:58:26.427Z,42.92
2022-08-22T01:59:10.957Z,42.91
2022-08-22T01:59:50.870Z,43.05
2022-08-22T02:00:37.865Z,43.09
2022-08-22T02:01:24.290Z,43.04
2022-08-22T02:02:06.761Z,42.80
2022-08-22T02:02:51.676Z,42.90
2022-08-22T02:03:40.053Z,42.87
2022-08-22T02:04:26.485Z,42.98
2022-08-22T02:05:12.428Z,42.84
2022-08-22T02:05:56.759Z,42.76
2022-08-22T02:06:41.268Z,43.04
2022-08-22T02:07:31.582Z,42.71
2022-08-22T02:08:15.750Z,43.00
2022-08-22T02:08:58.749Z,42.76
2022-08-22T02:09:43.219Z,42.99
2022-08-22T02:10:25.923Z,43.02
2022-08-22T02:11:11.156Z,42.94
2022-08-22T02:11:50.264Z,43.03
2022-08-22T02:12:32.648Z,43.00
2022-08-22T02:13:17.230Z,43.01
2022-08-22T02:13:59.789Z,42.70
2022-08-22T02:14:47.554Z,42.92
2022-08-22T02:15:35.703Z,42.84
2022-08-22T02:16:22.470Z,42.96
2022-08-22T02:17:08.716Z,42.91
2022-08-22T02:17:53.079Z,42.75
2022-08-22T02:18:36.678Z,42.81
2022-08-22T02:19:23.682Z,43.02
2022-08-22T02:20:09.683Z,42.89
2022-08-22T02:20:56.767Z,42.62
2022-08-22T02:21:41.929Z,42.89
2022-08-22T02:22:28.844Z,42.95
2022-08-22T02:23:21.635Z,42.69
2022-08-22T02:24:07.105Z,42.71
2022-08-22T02:24:53.677Z,42.95
2022-08-22T02:25:41.095Z,42.77
2022-08-22T02:26:27.230Z,42.67
2022-08-22T02:27:13.681Z,42.88
2022-08-22T02:28:00.531Z,42.76
2022-08-22T02:28:57.077Z,42.88
2022-08-22T02:29:40.873Z,42.88
2022-08-22T02:30:28.560Z,42.88
2022-08-22T02:31:17.075Z,42.84
2022-08-22T02:32:02.060Z,42.86
2022-08-22T02:32:48.252Z,42.80
2022-08-22T02:33:37.546Z,42.78
2022-08-22T02:34:23.979Z,42.54
2022-08-22T02:35:10.412Z,42.73
2022-08-22T02:35:55.667Z,42.54
2022-08-22T02:36:39.088Z,42.88
2022-08-22T02:37:23.407Z,42.66
2022-08-22T02:38:08.287Z,42.76
2022-08-22T02:38:49.222Z,42.53
2022-08-22T02:39:34.748Z,42.73
2022-08-22T02:40:19.926Z,42.50
2022-08-22T02:41:02.017Z,42.63
2022-08-22T02:41:46.433Z,42.62
2022-08-22T02:42:31.241Z,42.43
2022-08-22T02:43:14.934Z,42.39
2022-08-22T02:43:56.797Z,42.44
2022-08-22T02:44:45.458Z,42.69
2022-08-22T02:45:33.059Z,42.69
2022-08-22T02:46:20.417Z,42.75
2022-08-22T02:47:07.271Z,42.43
2022-08-22T02:47:53.800Z,42.40
2022-08-22T02:48:38.863Z,42.46
2022-08-22T02:49:24.109Z,42.46
2022-08-22T02:50:06.771Z,42.61
2022-08-22T02:50:53.978Z,42.53
2022-08-22T02:51:42.024Z,42.50
2022-08-22T02:52:28.017Z,42.66
2022-08-22T02:53:16.023Z,42.64
2022-08-22T02:54:02.496Z,42.74
2022-08-22T02:54:53.966Z,42.69
2022-08-22T02:55:41.293Z,42.71
2022-08-22T02:56:24.514Z,42.46
2022-08-22T02:57:15.423Z,42.63
2022-08-22T02:58:03.211Z,42.66
2022-08-22T02:58:48.582Z,42.55
2022-08-22T02:59:33.211Z,42.66
2022-08-22T03:00:31.107Z,42.48
2022-08-22T03:01:16.913Z,42.37
2022-08-22T03:02:03.004Z,42.43
2022-08-22T03:02:49.293Z,42.60
2022-08-22T03:03:35.184Z,42.34
2022-08-22T03:04:22.801Z,42.59
2022-08-22T03:05:05.173Z,42.50
2022-08-22T03:05:51.421Z,42.58
2022-08-22T03:06:36.518Z,42.42
2022-08-22T03:07:24.759Z,42.60
2022-08-22T03:08:11.052Z,42.56
2022-08-22T03:08:57.998Z,42.37
2022-08-22T03:09:45.943Z,42.35
2022-08-22T03:10:35.374Z,42.37
2022-08-22T03:11:20.622Z,42.63
2022-08-22T03:12:06.659Z,42.61
2022-08-22T03:12:54.597Z,42.72
2022-08-22T03:13:40.793Z,42.54
2022-08-22T03:14:24.741Z,42.63
2022-08-22T03:15:06.933Z,42.34
2022-08-22T03:15:52.851Z,42.41
2022-08-22T03:16:35.228Z,42.29
2022-08-22T03:17:22.093Z,42.67
2022-08-22T03:18:07.568Z,42.29
2022-08-22T03:18:52.126Z,42.51
2022-08-22T03:19:36.475Z,42.58
2022-08-22T03:20:26.618Z,42.49
2022-08-22T03:21:13.327Z,42.57
2022-08-22T03:22:01.755Z,42.56
2022-08-22T03:22:50.908Z,42.47
2022-08-22T03:23:38.688Z,42.54
2022-08-22T03:24:25.993Z,42.51
2022-08-22T03:25:11.457Z,42.45
2022-08-22T03:26:02.221Z,42.56
2022-08-22T03:26:51.170Z,42.54
2022-08-22T03:27:37.089Z,42.26
2022-08-22T03:28:26.028Z,42.27
2022-08-22T03:29:09.340Z,42.45
2022-08-22T03:29:58.232Z,42.47
2022-08-22T03:30:44.870Z,42.39
2022-08-22T03:31:24.237Z,42.55
2022-08-22T03:32:07.403Z,42.29
2022-08-22T03:32:54.225Z,42.32
2022-08-22T03:33:41.502Z,42.31
2022-08-22T03:34:26.932Z,42.61
2022-08-22T03:35:13.462Z,42.35
2022-08-22T03:36:00.855Z,42.49
2022-08-22T03:36:43.653Z,42.59
2022-08-22T03:37:29.533Z,42.55
2022-08-22T03:38:16.631Z,42.62
2022-08-22T03:39:03.085Z,42.55
2022-08-22T03:39:57.740Z,42.35
2022-08-22T03:40:46.721Z,42.45
2022-08-22T03:41:39.233Z,42.56
2022-08-22T03:42:23.431Z,42.49
2022-08-22T03:43:09.999Z,42.43
2022-08-22T03:43:56.790Z,42.27
2022-08-22T03:44:39.103Z,42.57
2022-08-22T03:45:25.935Z,42.53
2022-08-22T03:46:11.278Z,42.48
2022-08-22T03:47:01.016Z,42.40
2022-08-22T03:47:47.894Z,42.49
2022-08-22T03:48:33.089Z,42.13
2022-08-22T03:49:21.783Z,42.33
2022-08-22T03:50:07.751Z,42.46
2022-08-22T03:50:49.877Z,42.19
2022-08-22T03:51:39.004Z,42.24
2022-08-22T03:52:24.490Z,42.39
2022-08-22T03:53:15.420Z,42.22
2022-08-22T03:54:03.231Z,42.40
2022-08-22T03:54:51.245Z,42.44
2022-08-22T03:55:40.125Z,42.39
2022-08-22T03:56:26.588Z,42.41
2022-08-22T03:57:10.912Z,42.11
2022-08-22T03:57:53.159Z,42.40
2022-08-22T03:58:39.507Z,42.42
2022-08-22T03:59:28.018Z,42.44
2022-08-22T04:00:13.544Z,42.40
2022-08-22T04:01:01.816Z,42.35
2022-08-22T04:01:49.219Z,42.56
2022-08-22T04:02:43.242Z,42.23
2022-08-22T04:03:26.988Z,42.52
2022-08-22T04:04:14.977Z,42.44
2022-08-22T04:05:01.533Z,42.36
2022-08-22T04:05:49.485Z,42.22
2022-08-22T04:06:39.181Z,42.17
2022-08-22T04:07:32.078Z,42.38
2022-08-22T04:08:13.913Z,42.39
2022-08-22T04:09:05.822Z,42.41
2022-08-22T04:10:00.961Z,42.39
2022-08-22T04:10:53.456Z,42.51
2022-08-22T04:11:39.761Z,42.23
2022-08-22T04:12:30.539Z,42.56
2022-08-22T04:13:20.725Z,42.27
2022-08-22T04:14:09.349Z,42.42
2022-08-22T04:14:57.367Z,42.23
2022-08-22T04:15:49.232Z,42.46
2022-08-22T04:16:35.373Z,42.22
2022-08-22T04:17:21.456Z,42.36
2022-08-22T04:18:08.442Z,42.30
2022-08-22T04:18:56.189Z,42.47
2022-08-22T04:19:44.984Z,42.55
2022-08-22T04:20:33.392Z,42.47
2022-08-22T04:21:16.869Z,42.57
2022-08-22T04:22:04.886Z,42.42
2022-08-22T04:23:51.816Z,42.44
2022-08-22T04:24:36.724Z,42.57
2022-08-22T04:25:27.011Z,42.59
2022-08-22T04:26:12.853Z,42.55
2022-08-22T04:26:58.541Z,42.36
2022-08-22T04:27:46.289Z,42.33
2022-08-22T04:28:30.293Z,42.46
2022-08-22T04:29:19.201Z,42.29
2022-08-22T04:30:04.582Z,42.52
2022-08-22T04:30:48.990Z,42.32
2022-08-22T04:31:33.628Z,42.63
2022-08-22T04:32:18.448Z,42.66
2022-08-22T04:33:02.764Z,42.59
2022-08-22T04:33:50.639Z,42.32
2022-08-22T04:36:02.471Z,42.59
2022-08-22T04:36:54.501Z,42.47
2022-08-22T04:37:44.182Z,42.38
2022-08-22T04:38:33.472Z,42.27
2022-08-22T04:39:24.310Z,42.51
2022-08-22T04:40:16.395Z,42.24
2022-08-22T04:41:04.700Z,42.38
2022-08-22T04:41:54.661Z,42.24
2022-08-22T04:42:44.081Z,42.52
2022-08-22T04:43:33.612Z,42.49
2022-08-22T04:44:24.304Z,42.34
2022-08-22T04:45:09.487Z,42.47
2022-08-22T04:45:59.246Z,42.26
2022-08-22T04:46:48.775Z,42.53
2022-08-22T04:47:36.529Z,42.50
2022-08-22T04:48:24.977Z,42.60
2022-08-22T04:49:08.436Z,42.56
2022-08-22T04:49:54.989Z,42.38
2022-08-22T04:50:43.423Z,42.61
2022-08-22T04:51:31.113Z,42.36
2022-08-22T04:52:23.507Z,42.34
2022-08-22T04:53:16.244Z,42.42
2022-08-22T04:54:08.893Z,42.55
2022-08-22T04:54:57.620Z,42.52
2022-08-22T04:55:47.108Z,42.51
2022-08-22T04:56:35.224Z,42.27
2022-08-22T04:57:26.157Z,42.19
2022-08-22T04:58:13.716Z,42.19
2022-08-22T04:59:09.372Z,42.33
2022-08-22T04:59:59.050Z,42.19
2022-08-22T05:00:58.947Z,42.25
2022-08-22T05:01:47.342Z,42.37
2022-08-22T05:02:33.117Z,42.16
2022-08-22T05:03:20.218Z,42.37
2022-08-22T05:04:05.661Z,42.13
2022-08-22T05:04:53.547Z,42.28
2022-08-22T05:05:38.867Z,42.29
2022-08-22T05:06:24.776Z,42.21
2022-08-22T05:07:10.105Z,42.29
2022-08-22T05:07:55.842Z,42.23
2022-08-22T05:08:41.043Z,42.12
2022-08-22T05:09:30.668Z,42.21
2022-08-22T05:10:17.832Z,42.33
2022-08-22T05:11:09.371Z,42.19
2022-08-22T05:12:00.657Z,42.22
2022-08-22T05:12:52.710Z,42.25
2022-08-22T05:13:40.896Z,42.28
2022-08-22T05:14:27.428Z,42.11
2022-08-22T05:15:18.914Z,42.21
2022-08-22T05:16:08.794Z,42.21
2022-08-22T05:16:56.722Z,42.18
2022-08-22T05:17:45.667Z,42.18
2022-08-22T05:18:36.259Z,42.12
2022-08-22T05:19:31.230Z,42.09
2022-08-22T05:20:13.582Z,42.27
2022-08-22T05:21:01.618Z,42.27
2022-08-22T05:21:47.052Z,42.13
2022-08-22T05:22:33.886Z,42.26
2022-08-22T05:23:22.976Z,42.35
2022-08-22T05:24:14.542Z,42.41
2022-08-22T05:25:00.766Z,42.37
2022-08-22T05:25:46.911Z,42.44
2022-08-22T05:26:34.003Z,42.24
2022-08-22T05:27:22.419Z,42.19
2022-08-22T05:28:07.672Z,42.39
2022-08-22T05:28:53.427Z,42.36
2022-08-22T05:29:38.971Z,42.47
2022-08-22T05:30:24.013Z,42.50
2022-08-22T05:31:11.671Z,42.38
2022-08-22T05:31:57.890Z,42.48
2022-08-22T05:32:43.491Z,42.33
2022-08-22T05:33:26.535Z,42.42
2022-08-22T05:34:13.567Z,42.61
2022-08-22T05:35:02.335Z,42.38
2022-08-22T05:36:44.925Z,42.58
2022-08-22T05:37:38.331Z,42.44
2022-08-22T05:38:28.817Z,42.50
2022-08-22T05:39:30.874Z,42.62
2022-08-22T05:40:22.657Z,42.55
2022-08-22T05:41:14.625Z,42.44
2022-08-22T05:42:05.442Z,42.38
2022-08-22T05:42:56.935Z,42.38
2022-08-22T05:43:42.302Z,42.44
2022-08-22T05:44:39.872Z,42.53
2022-08-22T05:45:27.774Z,42.57
2022-08-22T05:46:34.160Z,42.58
2022-08-22T05:47:22.650Z,42.64
2022-08-22T05:48:09.247Z,42.58
2022-08-22T05:48:55.328Z,42.78
2022-08-22T05:50:37.540Z,42.68
2022-08-22T05:51:26.555Z,42.72
2022-08-22T05:52:40.348Z,42.75
2022-08-22T05:53:30.052Z,42.80
2022-08-22T05:54:12.067Z,42.80
2022-08-22T05:54:59.662Z,42.88
2022-08-22T05:55:45.251Z,42.81
2022-08-22T05:56:30.824Z,42.82
2022-08-22T05:57:19.291Z,42.72
2022-08-22T05:58:16.792Z,42.96
2022-08-22T05:59:24.076Z,42.82
2022-08-22T06:00:11.799Z,43.08
2022-08-22T06:01:02.383Z,42.76
2022-08-22T06:01:48.635Z,43.10
2022-08-22T06:02:39.097Z,43.01
2022-08-22T06:03:25.133Z,42.91
2022-08-22T06:04:07.789Z,43.04
2022-08-22T06:05:03.521Z,42.97
2022-08-22T06:06:00.897Z,43.18
2022-08-22T06:08:02.708Z,43.11
2022-08-22T06:08:55.344Z,43.21
2022-08-22T06:09:58.195Z,43.22
2022-08-22T06:10:53.835Z,43.25
2022-08-22T06:11:51.657Z,43.02
2022-08-22T06:12:43.450Z,43.18
2022-08-22T06:14:13.563Z,43.26
2022-08-22T06:15:00.512Z,43.04
2022-08-22T06:16:58.909Z,43.28
2022-08-22T06:17:45.171Z,43.04
2022-08-22T06:18:37.581Z,43.18
2022-08-22T06:19:30.539Z,43.24
2022-08-22T06:20:18.234Z,43.37
2022-08-22T06:21:07.930Z,43.36
2022-08-22T06:22:13.760Z,43.44
2022-08-22T06:23:11.744Z,43.26
2022-08-22T06:24:10.566Z,43.32
2022-08-22T06:24:55.970Z,43.29
2022-08-22T06:25:43.141Z,43.38
2022-08-22T06:26:34.724Z,43.36
2022-08-22T06:27:31.551Z,43.24
2022-08-22T06:28:30.058Z,43.44
2022-08-22T06:29:21.515Z,43.63
2022-08-22T06:30:11.645Z,43.34
2022-08-22T06:32:44.527Z,43.53
2022-08-22T06:33:30.655Z,43.62
2022-08-22T06:34:15.692Z,43.53
2022-08-22T06:35:21.257Z,43.63
2022-08-22T06:36:12.271Z,43.56
2022-08-22T06:37:10.299Z,43.42
2022-08-22T06:38:24.656Z,43.64
2022-08-22T06:40:20.824Z,43.68
2022-08-22T06:41:11.557Z,43.83
2022-08-22T06:42:03.973Z,43.69
2022-08-22T06:42:58.044Z,43.67
2022-08-22T06:44:04.131Z,43.86
2022-08-22T06:45:05.740Z,43.59
2022-08-22T06:45:57.282Z,43.69
2022-08-22T06:46:41.286Z,43.75
2022-08-22T06:47:30.392Z,43.83
2022-08-22T06:48:24.906Z,43.78
2022-08-22T06:49:29.736Z,44.05
2022-08-22T06:50:13.711Z,43.95
2022-08-22T06:50:57.917Z,44.20
2022-08-22T06:51:51.789Z,43.85
2022-08-22T06:52:39.303Z,44.04
2022-08-22T06:53:24.076Z,43.86
2022-08-22T06:54:14.089Z,43.88
2022-08-22T06:56:24.360Z,43.74
2022-08-22T06:57:12.440Z,43.82
2022-08-22T06:58:07.807Z,43.69
2022-08-22T06:58:53.797Z,44.17
2022-08-22T06:59:42.024Z,43.99
2022-08-22T07:00:29.089Z,43.98
2022-08-22T07:01:22.058Z,43.79
2022-08-22T07:02:12.359Z,43.99
2022-08-22T07:03:14.114Z,43.87
2022-08-22T07:04:11.056Z,44.01
2022-08-22T07:05:03.532Z,43.97
2022-08-22T07:05:49.729Z,44.10
2022-08-22T07:06:35.856Z,44.20
2022-08-22T07:07:24.921Z,44.21
2022-08-22T07:08:11.387Z,43.96
2022-08-22T07:09:05.743Z,44.28
2022-08-22T07:09:52.474Z,44.02
2022-08-22T07:10:44.032Z,44.25
2022-08-22T07:11:34.529Z,44.42
2022-08-22T07:12:23.866Z,44.35
2022-08-22T07:13:16.600Z,44.37
2022-08-22T07:14:05.142Z,44.36
2022-08-22T07:14:56.342Z,44.34
2022-08-22T07:15:43.696Z,44.34
2022-08-22T07:16:29.804Z,44.48
2022-08-22T07:17:19.102Z,44.47
2022-08-22T07:18:10.867Z,44.13
2022-08-22T07:18:58.597Z,44.27
2022-08-22T07:19:45.933Z,44.56
2022-08-22T07:20:42.051Z,44.24
2022-08-22T07:21:46.602Z,44.39
2022-08-22T07:22:33.874Z,44.26
2022-08-22T07:23:24.849Z,44.29
2022-08-22T07:24:16.306Z,44.25
2022-08-22T07:25:10.727Z,44.19
2022-08-22T07:25:59.163Z,44.25
2022-08-22T07:26:46.768Z,44.24
2022-08-22T07:27:37.539Z,44.25
2022-08-22T07:28:36.518Z,44.25
2022-08-22T07:29:23.279Z,44.12
2022-08-22T07:30:10.900Z,44.49
2022-08-22T07:31:01.283Z,44.48
2022-08-22T07:31:50.084Z,44.34
2022-08-22T07:32:35.999Z,44.42
2022-08-22T07:33:26.965Z,44.30
2022-08-22T07:34:18.928Z,44.24
2022-08-22T07:35:28.950Z,44.29
2022-08-22T07:36:28.392Z,44.56
2022-08-22T07:37:13.592Z,44.56
2022-08-22T07:38:04.597Z,44.38
2022-08-22T07:38:58.872Z,44.50
2022-08-22T07:39:45.822Z,44.49
2022-08-22T07:40:33.748Z,44.50
2022-08-22T07:41:25.861Z,44.51
2022-08-22T07:42:30.387Z,44.42
2022-08-22T07:43:20.148Z,44.52
2022-08-22T07:44:08.237Z,44.28
2022-08-22T07:44:57.403Z,44.44
2022-08-22T07:47:38.294Z,44.61
2022-08-22T07:48:26.517Z,44.34
2022-08-22T07:49:15.406Z,44.65
2022-08-22T07:50:03.172Z,44.33
2022-08-22T07:50:59.025Z,44.51
2022-08-22T07:51:50.347Z,44.44
2022-08-22T07:52:51.754Z,44.50
2022-08-22T07:53:42.215Z,44.51
2022-08-22T07:54:37.189Z,44.56
2022-08-22T07:55:26.027Z,44.45
2022-08-22T07:56:14.192Z,44.48
2022-08-22T07:57:08.372Z,44.40
2022-08-22T07:58:01.219Z,44.48
2022-08-22T07:58:52.029Z,44.42
2022-08-22T07:59:41.053Z,44.27
2022-08-22T08:00:28.806Z,44.43
2022-08-22T08:01:15.299Z,44.36
2022-08-22T08:02:01.555Z,44.16
2022-08-22T08:02:52.233Z,44.49
2022-08-22T08:03:44.876Z,44.34
2022-08-22T08:04:46.400Z,44.22
2022-08-22T08:06:39.662Z,44.47
2022-08-22T08:07:28.786Z,44.39
2022-08-22T08:08:31.133Z,44.37
2022-08-22T08:09:22.660Z,44.29
2022-08-22T08:10:13.242Z,44.34
2022-08-22T08:11:00.396Z,44.11
2022-08-22T08:11:46.499Z,44.30
2022-08-22T08:12:34.229Z,44.38
2022-08-22T08:13:20.094Z,44.20
2022-08-22T08:14:06.885Z,44.22
2022-08-22T08:14:58.803Z,44.31
2022-08-22T08:15:48.687Z,44.00
2022-08-22T08:16:38.280Z,44.02
2022-08-22T08:17:27.823Z,44.00
2022-08-22T08:18:18.665Z,43.94
2022-08-22T08:19:11.040Z,43.93
2022-08-22T08:20:01.756Z,44.01
2022-08-22T08:20:56.303Z,44.06
2022-08-22T08:21:39.792Z,43.96
2022-08-22T08:22:26.949Z,44.01
2022-08-22T08:23:14.076Z,44.14
2022-08-22T08:24:06.332Z,44.25
2022-08-22T08:24:54.316Z,44.21
2022-08-22T08:25:53.576Z,44.02
2022-08-22T08:26:34.519Z,43.92
2022-08-22T08:27:21.043Z,44.04
2022-08-22T08:28:08.119Z,44.08
2022-08-22T08:28:52.870Z,43.83
2022-08-22T08:29:38.670Z,44.02
2022-08-22T08:30:37.905Z,44.12
2022-08-22T08:31:21.815Z,44.03
2022-08-22T08:32:08.901Z,43.82
2022-08-22T08:33:24.915Z,44.05
2022-08-22T08:34:03.883Z,43.94
2022-08-22T08:34:54.146Z,43.75
2022-08-22T08:36:02.846Z,43.68
2022-08-22T08:36:44.637Z,43.75
2022-08-22T08:37:53.596Z,43.43
2022-08-22T08:38:41.131Z,43.63
2022-08-22T08:39:35.471Z,43.57
2022-08-22T08:40:26.860Z,43.32
2022-08-22T08:41:13.741Z,43.23
2022-08-22T08:42:04.296Z,43.24
2022-08-22T08:42:57.887Z,43.32
2022-08-22T08:43:59.516Z,42.98
2022-08-22T08:44:45.531Z,43.08
2022-08-22T08:45:34.166Z,43.04
2022-08-22T08:46:20.655Z,42.81
2022-08-22T08:47:14.131Z,42.86
2022-08-22T08:48:01.556Z,42.81
2022-08-22T08:49:01.622Z,42.78
2022-08-22T08:49:52.209Z,42.72
2022-08-22T08:50:39.217Z,42.89
2022-08-22T08:51:29.193Z,43.04
2022-08-22T08:52:26.767Z,42.72
2022-08-22T08:53:13.441Z,42.92
2022-08-22T08:54:10.319Z,42.84
2022-08-22T08:55:00.031Z,42.81
2022-08-22T08:55:50.614Z,43.04
2022-08-22T08:56:47.331Z,43.14
2022-08-22T08:57:29.035Z,42.97
2022-08-22T08:58:19.511Z,42.96
2022-08-22T08:59:12.212Z,42.86
2022-08-22T09:00:04.447Z,42.99
2022-08-22T09:00:55.897Z,42.89
2022-08-22T09:01:38.783Z,42.78
2022-08-22T09:02:26.638Z,42.94
2022-08-22T09:03:30.516Z,42.97
2022-08-22T09:04:15.685Z,42.83
2022-08-22T09:05:06.416Z,43.17
2022-08-22T09:06:00.873Z,43.19
2022-08-22T09:06:52.923Z,43.31
2022-08-22T09:07:39.656Z,43.13
2022-08-22T09:08:36.117Z,43.17
2022-08-22T09:09:27.083Z,42.90
2022-08-22T09:10:23.453Z,43.14
2022-08-22T09:11:14.389Z,42.86
2022-08-22T09:11:57.333Z,42.96
2022-08-22T09:12:56.474Z,42.97
2022-08-22T09:13:46.731Z,42.80
2022-08-22T09:14:33.284Z,43.10
2022-08-22T09:15:20.746Z,42.86
2022-08-22T09:16:07.495Z,42.85
2022-08-22T09:16:53.469Z,43.17
2022-08-22T09:17:40.452Z,42.83
2022-08-22T09:18:30.767Z,42.85
2022-08-22T09:19:21.299Z,42.81
2022-08-22T09:20:31.781Z,42.79
2022-08-22T09:21:30.751Z,42.76
2022-08-22T09:22:14.572Z,42.85
2022-08-22T09:22:59.696Z,42.94
2022-08-22T09:23:48.462Z,42.96
2022-08-22T09:24:55.476Z,42.59
2022-08-22T09:25:40.583Z,42.70
2022-08-22T09:26:25.794Z,42.59
2022-08-22T09:27:30.313Z,42.66
2022-08-22T09:28:16.647Z,42.44
2022-08-22T09:29:02.203Z,42.59
2022-08-22T09:29:54.755Z,42.50
2022-08-22T09:30:41.239Z,42.57
2022-08-22T09:31:47.623Z,42.81
2022-08-22T09:32:30.080Z,42.57
2022-08-22T09:33:24.590Z,42.63
2022-08-22T09:34:17.183Z,42.90
2022-08-22T09:35:08.212Z,42.55
2022-08-22T09:35:58.337Z,42.80
2022-08-22T09:36:42.117Z,42.63
2022-08-22T09:37:30.755Z,42.65
2022-08-22T09:38:16.416Z,42.46
2022-08-22T09:39:15.215Z,42.57
2022-08-22T09:41:13.647Z,42.41
2022-08-22T09:43:08.749Z,42.59
2022-08-22T09:44:02.073Z,42.53
2022-08-22T09:44:54.367Z,42.55
2022-08-22T09:45:39.396Z,42.38
2022-08-22T09:46:32.253Z,42.54
2022-08-22T09:48:26.661Z,42.26
2022-08-22T09:49:12.664Z,42.28
2022-08-22T09:50:05.929Z,42.35
2022-08-22T09:51:01.634Z,42.34
2022-08-22T09:51:54.789Z,42.29
2022-08-22T09:52:41.309Z,42.32
2022-08-22T09:53:31.639Z,42.14
2022-08-22T09:54:18.829Z,42.12
2022-08-22T09:55:08.548Z,42.23
2022-08-22T09:57:06.180Z,41.94
2022-08-22T09:58:30.138Z,42.23
2022-08-22T09:59:36.220Z,42.10
2022-08-22T10:00:25.785Z,42.15
2022-08-22T10:01:17.186Z,42.21
2022-08-22T10:02:23.454Z,42.54
2022-08-22T10:03:09.163Z,42.54
2022-08-22T10:03:52.242Z,42.34
2022-08-22T10:04:42.114Z,42.32
2022-08-22T10:05:40.710Z,42.35
2022-08-22T10:06:30.677Z,42.37
2022-08-22T10:08:13.150Z,42.32
2022-08-22T10:08:56.897Z,42.76
2022-08-22T10:09:53.638Z,42.54
2022-08-22T10:10:39.255Z,42.51
2022-08-22T10:11:31.927Z,42.57
2022-08-22T10:12:24.922Z,42.79
2022-08-22T10:13:14.875Z,42.62
2022-08-22T10:14:05.454Z,42.67
2022-08-22T10:14:52.398Z,42.87
2022-08-22T10:15:36.944Z,42.59
2022-08-22T10:16:23.118Z,42.61
2022-08-22T10:17:09.101Z,42.75
2022-08-22T10:17:58.220Z,42.61
2022-08-22T10:18:43.905Z,43.00
2022-08-22T10:19:41.298Z,42.61
2022-08-22T10:20:27.689Z,42.87
2022-08-22T10:21:14.767Z,42.68
2022-08-22T10:22:03.455Z,42.75
2022-08-22T10:22:49.777Z,42.69
2022-08-22T10:23:45.964Z,42.94
2022-08-22T10:24:36.174Z,42.71
2022-08-22T10:25:31.443Z,42.92
2022-08-22T10:26:26.139Z,42.84
2022-08-22T10:27:16.056Z,42.74
2022-08-22T10:28:06.400Z,42.87
2022-08-22T10:28:56.873Z,42.99
2022-08-22T10:29:42.154Z,42.67
2022-08-22T10:30:31.379Z,42.96
2022-08-22T10:31:21.242Z,42.73
2022-08-22T10:32:14.629Z,42.79
2022-08-22T10:32:58.639Z,42.79
2022-08-22T10:33:56.544Z,43.01
2022-08-22T10:34:51.098Z,42.79
2022-08-22T10:35:36.736Z,42.78
2022-08-22T10:36:22.305Z,43.05
2022-08-22T10:37:11.120Z,43.13
2022-08-22T10:38:04.548Z,42.89
2022-08-22T10:39:29.424Z,42.73
2022-08-22T10:40:16.116Z,43.20
2022-08-22T10:41:00.141Z,42.92
2022-08-22T10:41:45.483Z,43.08
2022-08-22T10:42:34.957Z,43.14
2022-08-22T10:43:18.075Z,43.11
2022-08-22T10:44:01.709Z,43.23
2022-08-22T10:44:47.684Z,42.97